createdAt,value
2023-10-13T11:20:46.007Z,7.53
2023-10-13T11:23:16.586Z,8.20
2023-10-13T11:25:47.112Z,7.62
2023-10-13T11:28:30.732Z,7.75
2023-10-13T11:31:00.083Z,9.20
2023-10-13T11:33:32.383Z,8.13
2023-10-13T11:36:04.871Z,8.88
2023-10-13T11:38:37.301Z,8.50
2023-10-13T11:41:05.569Z,7.80
2023-10-13T11:43:56.392Z,7.82
2023-10-13T11:46:37.618Z,8.50
2023-10-13T11:49:17.401Z,7.73
2023-10-13T11:51:47.203Z,7.07
2023-10-13T11:54:15.793Z,6.78
2023-10-13T11:56:43.661Z,6.93
2023-10-13T11:59:25.600Z,7.07
2023-10-13T12:02:11.382Z,7.00
2023-10-13T12:04:56.185Z,6.22
2023-10-13T12:07:42.673Z,6.95
2023-10-13T12:10:17.980Z,6.72
2023-10-13T12:12:47.884Z,5.80
2023-10-13T12:15:37.901Z,6.12
2023-10-13T12:18:06.367Z,5.35
2023-10-13T12:20:34.751Z,5.22
2023-10-13T12:23:16.720Z,5.12
2023-10-13T12:26:01.530Z,5.18
2023-10-13T12:28:30.236Z,5.10
2023-10-13T12:31:05.363Z,5.30
2023-10-13T12:33:38.911Z,4.53
2023-10-13T12:36:09.798Z,5.07
2023-10-13T12:38:38.437Z,4.80
2023-10-13T12:41:35.301Z,4.97
2023-10-13T12:44:24.503Z,5.57
2023-10-13T12:47:11.795Z,5.45
2023-10-13T12:49:48.545Z,5.62
2023-10-13T12:52:20.903Z,5.70
2023-10-13T12:54:58.310Z,5.53
2023-10-13T12:57:29.660Z,5.43
2023-10-13T12:59:57.469Z,5.32
2023-10-13T13:02:26.927Z,4.97
2023-10-13T13:05:02.843Z,5.22
2023-10-13T13:07:31.122Z,5.00
2023-10-13T13:10:01.703Z,5.12
2023-10-13T13:12:32.016Z,5.37
2023-10-13T13:15:01.468Z,4.78
2023-10-13T13:22:25.605Z,4.80
2023-10-13T13:24:53.962Z,4.03
2023-10-13T13:27:23.651Z,4.50
2023-10-13T13:29:51.489Z,4.62
2023-10-13T13:32:30.022Z,4.85
2023-10-13T13:35:08.855Z,5.05
2023-10-13T13:40:16.399Z,4.43
2023-10-13T13:45:22.790Z,4.22
2023-10-13T13:47:54.489Z,4.60
2023-10-13T13:50:26.064Z,4.80
2023-10-13T13:53:01.336Z,4.07
2023-10-13T13:55:34.824Z,4.53
2023-10-13T13:58:02.463Z,4.70
2023-10-13T14:00:39.721Z,4.60
2023-10-13T14:03:14.321Z,4.60
2023-10-13T14:05:46.478Z,4.20
2023-10-13T14:08:16.299Z,4.70
2023-10-13T14:11:02.588Z,4.53
2023-10-13T14:13:50.148Z,4.20
2023-10-13T14:16:19.154Z,4.65
2023-10-13T14:18:48.146Z,4.57
2023-10-13T14:21:19.577Z,4.30
2023-10-13T14:23:48.602Z,4.72
2023-10-13T14:26:21.376Z,4.35
2023-10-13T14:29:03.147Z,4.50
2023-10-13T14:31:31.870Z,4.70
2023-10-13T14:34:00.741Z,4.68
2023-10-13T14:36:35.642Z,4.55
2023-10-13T14:39:12.750Z,4.70
2023-10-13T14:41:40.329Z,4.82
2023-10-13T14:44:08.596Z,4.43
2023-10-13T14:46:42.200Z,4.85
2023-10-13T14:49:10.991Z,5.37
2023-10-13T14:51:41.176Z,4.53
2023-10-13T14:54:08.988Z,4.80
2023-10-13T14:56:36.759Z,5.10
2023-10-13T14:59:06.150Z,4.80
2023-10-13T15:01:34.074Z,4.77
2023-10-13T15:04:01.934Z,5.05
2023-10-13T15:06:32.308Z,5.03
2023-10-13T15:09:01.045Z,4.78
2023-10-13T15:11:44.159Z,5.05
2023-10-13T15:14:14.960Z,4.68
2023-10-13T15:16:44.609Z,4.60
2023-10-13T15:19:13.502Z,5.00
2023-10-13T15:21:41.689Z,5.03
2023-10-13T15:26:50.064Z,5.03
2023-10-13T15:29:27.625Z,4.60
2023-10-13T15:32:01.102Z,4.93
2023-10-13T15:34:29.677Z,4.80
2023-10-13T15:36:58.391Z,4.32
2023-10-13T15:39:29.465Z,4.30
2023-10-13T15:42:00.591Z,5.20
2023-10-13T15:44:31.502Z,5.72
2023-10-13T15:49:31.432Z,7.65
2023-10-13T15:51:59.365Z,6.82
2023-10-13T15:54:27.116Z,6.30
2023-10-13T15:56:55.846Z,7.00
2023-10-13T15:59:24.597Z,7.70
2023-10-13T16:01:58.899Z,8.75
2023-10-13T16:04:27.318Z,8.50
2023-10-13T16:06:54.944Z,8.32
2023-10-13T16:09:25.936Z,7.75
2023-10-13T16:11:55.711Z,7.37
2023-10-13T16:14:23.763Z,7.22
2023-10-13T16:16:53.876Z,7.20
2023-10-13T16:19:25.289Z,7.12
2023-10-13T16:21:54.364Z,7.82
2023-10-13T16:24:23.283Z,8.68
2023-10-13T16:26:57.095Z,8.23
2023-10-13T16:29:25.098Z,9.60
2023-10-13T16:31:52.613Z,9.50
2023-10-13T16:34:20.168Z,11.02
2023-10-13T16:36:49.570Z,10.80
2023-10-13T16:39:17.574Z,10.70
2023-10-13T16:41:47.014Z,10.13
2023-10-13T16:44:14.943Z,10.50
2023-10-13T16:46:42.532Z,10.30
2023-10-13T16:49:10.014Z,12.30
2023-10-13T16:51:38.034Z,10.65
2023-10-13T16:54:06.388Z,11.10
2023-10-13T16:56:37.064Z,11.07
2023-10-13T16:59:08.551Z,14.73
2023-10-13T17:01:38.176Z,10.63
2023-10-13T17:04:07.468Z,12.10
2023-10-13T17:06:35.161Z,12.50
2023-10-13T17:09:05.368Z,14.00
2023-10-13T17:11:33.271Z,15.30
2023-10-13T17:14:00.741Z,14.55
2023-10-13T17:16:28.297Z,12.75
2023-10-13T17:18:56.197Z,11.18
2023-10-13T17:21:34.737Z,10.25
2023-10-13T17:24:02.905Z,10.07
2023-10-13T17:26:31.959Z,9.07
2023-10-13T17:29:00.070Z,9.45
2023-10-13T17:31:28.278Z,8.70
2023-10-13T17:33:59.592Z,9.00
2023-10-13T17:36:31.054Z,8.38
2023-10-13T17:39:00.122Z,8.55
2023-10-13T17:41:29.476Z,8.88
2023-10-13T17:43:57.260Z,8.77
2023-10-13T17:46:25.792Z,9.05
2023-10-13T17:48:56.920Z,8.65
2023-10-13T17:51:25.161Z,8.35
2023-10-13T17:53:54.049Z,8.85
2023-10-13T17:56:22.009Z,8.87
2023-10-13T17:58:52.506Z,10.60
2023-10-13T18:01:21.032Z,10.53
2023-10-13T18:03:52.989Z,10.77
2023-10-13T18:06:22.836Z,10.77
2023-10-13T18:08:52.801Z,10.60
2023-10-13T18:11:25.637Z,10.73
2023-10-13T18:13:54.148Z,9.88
2023-10-13T18:16:25.630Z,8.85
2023-10-13T18:18:57.196Z,8.60
2023-10-13T18:21:25.198Z,9.38
2023-10-13T18:23:54.168Z,9.25
2023-10-13T18:26:22.132Z,9.03
2023-10-13T18:28:56.167Z,8.90
2023-10-13T18:31:23.808Z,9.38
2023-10-13T18:33:59.550Z,8.98
2023-10-13T18:36:31.086Z,9.17
2023-10-13T18:39:03.133Z,9.65
2023-10-13T18:41:32.329Z,10.10
2023-10-13T18:44:01.140Z,9.60
2023-10-13T18:46:30.273Z,9.35
2023-10-13T18:49:03.567Z,9.30
2023-10-13T18:51:34.031Z,9.52
2023-10-13T18:54:02.986Z,9.52
2023-10-13T18:56:32.438Z,9.63
2023-10-13T18:59:04.292Z,10.13
2023-10-13T19:01:37.128Z,9.60
2023-10-13T19:04:10.255Z,10.68
2023-10-13T19:06:38.779Z,11.30
2023-10-13T19:09:07.401Z,10.65
2023-10-13T19:11:37.712Z,11.82
2023-10-13T19:14:11.883Z,11.15
2023-10-13T19:16:48.007Z,11.93
2023-10-13T19:19:16.602Z,11.05
2023-10-13T19:21:47.807Z,13.13
2023-10-13T19:24:16.720Z,13.03
2023-10-13T19:26:45.267Z,11.02
2023-10-13T19:29:13.731Z,11.05
2023-10-13T19:31:44.852Z,10.83
2023-10-13T19:34:19.528Z,11.77
2023-10-13T19:36:48.245Z,12.10
2023-10-13T19:39:20.538Z,11.85
2023-10-13T19:41:48.810Z,11.43
2023-10-13T19:44:17.021Z,10.20
2023-10-13T19:46:49.449Z,11.27
2023-10-13T19:49:20.012Z,10.43
2023-10-13T19:51:48.537Z,11.02
2023-10-13T19:54:16.825Z,11.00
2023-10-13T19:56:44.856Z,10.90
2023-10-13T19:59:13.420Z,11.23
2023-10-13T20:01:44.096Z,13.10
2023-10-13T20:04:15.298Z,15.95
2023-10-13T20:06:43.611Z,14.45
2023-10-13T20:09:25.515Z,17.85
2023-10-13T20:11:53.986Z,13.55
2023-10-13T20:14:23.036Z,12.13
2023-10-13T20:16:51.208Z,11.93
2023-10-13T20:19:19.561Z,17.52
2023-10-13T20:21:48.393Z,13.10
2023-10-13T20:24:17.154Z,13.95
2023-10-13T20:26:48.155Z,12.55
2023-10-13T20:29:19.323Z,10.57
2023-10-13T20:31:49.561Z,10.63
2023-10-13T20:34:21.147Z,11.20
2023-10-13T20:36:49.144Z,12.32
2023-10-13T20:39:27.248Z,11.10
2023-10-13T20:41:55.142Z,12.57
2023-10-13T20:44:28.318Z,12.35
2023-10-13T20:46:59.100Z,11.60
2023-10-13T20:49:29.702Z,11.68
2023-10-13T20:51:57.477Z,11.50
2023-10-13T20:54:24.960Z,11.00
2023-10-13T20:56:55.672Z,11.10
2023-10-13T20:59:23.853Z,11.18
2023-10-13T21:01:51.593Z,10.97
2023-10-13T21:04:19.226Z,10.63
2023-10-13T21:06:50.846Z,10.90
2023-10-13T21:09:22.161Z,11.88
2023-10-13T21:11:50.251Z,11.63
2023-10-13T21:14:17.846Z,12.55
2023-10-13T21:16:45.349Z,12.88
2023-10-13T21:19:13.251Z,15.73
2023-10-13T21:21:41.406Z,14.18
2023-10-13T21:24:12.327Z,12.15
2023-10-13T21:26:40.297Z,11.93
2023-10-13T21:29:10.926Z,11.45
2023-10-13T21:31:57.097Z,12.05
2023-10-13T21:34:24.839Z,11.77
2023-10-13T21:36:52.355Z,11.48
2023-10-13T21:39:21.213Z,11.55
2023-10-13T21:41:54.863Z,12.40
2023-10-13T21:44:22.695Z,11.55
2023-10-13T21:46:50.188Z,11.23
2023-10-13T21:49:19.786Z,12.00
2023-10-13T21:51:47.195Z,11.77
2023-10-13T21:54:15.882Z,11.70
2023-10-13T21:56:43.629Z,11.30
2023-10-13T21:59:11.837Z,11.60
2023-10-13T22:01:45.519Z,12.70
2023-10-13T22:04:21.902Z,11.77
2023-10-13T22:06:49.719Z,12.00
2023-10-13T22:09:19.014Z,12.82
2023-10-13T22:11:46.519Z,11.90
2023-10-13T22:14:17.522Z,11.85
2023-10-13T22:16:45.476Z,11.65
2023-10-13T22:19:13.510Z,12.35
2023-10-13T22:21:41.806Z,13.23
2023-10-13T22:24:12.006Z,12.73
2023-10-13T22:26:39.607Z,12.48
2023-10-13T22:29:07.933Z,12.65
2023-10-13T22:31:36.225Z,12.43
2023-10-13T22:34:06.683Z,12.50
2023-10-13T22:36:34.278Z,12.75
2023-10-13T22:39:02.097Z,12.80
2023-10-13T22:41:34.852Z,12.60
2023-10-13T22:44:06.759Z,13.07
2023-10-13T22:46:35.326Z,12.73
2023-10-13T22:49:03.101Z,13.38
2023-10-13T22:51:30.664Z,12.75
2023-10-13T22:53:58.194Z,12.93
2023-10-13T22:56:25.881Z,13.13
2023-10-13T22:58:56.218Z,12.30
2023-10-13T23:01:23.756Z,12.20
2023-10-13T23:03:58.699Z,11.87
2023-10-13T23:06:35.259Z,12.45
2023-10-13T23:09:13.387Z,11.57
2023-10-13T23:11:40.882Z,12.18
2023-10-13T23:14:13.575Z,12.30
2023-10-13T23:16:41.397Z,11.98
2023-10-13T23:19:09.230Z,13.00
2023-10-13T23:21:39.859Z,12.73
2023-10-13T23:24:10.994Z,13.00
2023-10-13T23:26:39.894Z,13.63
2023-10-13T23:29:11.300Z,13.40
2023-10-13T23:31:39.788Z,13.52
2023-10-13T23:34:07.298Z,13.32
2023-10-13T23:36:35.340Z,12.55
2023-10-13T23:39:12.042Z,12.65
2023-10-13T23:41:42.997Z,12.02
2023-10-13T23:44:18.559Z,13.83
2023-10-13T23:46:46.470Z,13.07
2023-10-13T23:49:19.265Z,13.87
2023-10-13T23:51:51.169Z,13.30
2023-10-13T23:54:19.598Z,12.68
2023-10-13T23:56:49.149Z,13.40
2023-10-13T23:59:29.741Z,14.77
